Time;durP1;ratioP1;P1;durP2;ratioP2;P2;SDS_P1;SDS_P2;PMS_P1;PMS_P2;Temp;Humidity;BMP_temperature;BMP_pressure;BME280_temperature;BME280_humidity;BME280_pressure;Samples;Min_cycle;Max_cycle;Signal;HPM_P1;HPM_P2
2021/06/25 00:00:02;;;;;;;32.15;8.00;;;;;;;29.44;49.58;99768.44;5094027;28;20051;-83
2021/06/25 00:02:30;;;;;;;27.92;8.00;;;;;;;29.34;50.16;99776.34;5094202;28;20135;-83
2021/06/25 00:04:58;;;;;;;29.27;8.27;;;;;;;29.35;49.82;99775.28;5093709;28;20134;-76
2021/06/25 00:07:26;;;;;;;28.42;7.32;;;;;;;29.26;50.27;99774.72;5093965;28;20040;-76
2021/06/25 00:09:55;;;;;;;25.95;7.55;;;;;;;29.33;50.04;99767.25;5093640;28;20063;-76
2021/06/25 00:12:23;;;;;;;33.65;7.68;;;;;;;29.25;49.92;99769.47;5093756;28;20077;-76
2021/06/25 00:14:52;;;;;;;31.15;7.50;;;;;;;29.04;51.30;99773.44;5074289;28;20113;-74
2021/06/25 00:17:21;;;;;;;26.85;8.23;;;;;;;28.98;51.87;99771.59;5093932;28;20043;-80
2021/06/25 00:19:49;;;;;;;26.88;7.85;;;;;;;28.87;51.89;99759.41;5093556;28;20036;-81
2021/06/25 00:22:18;;;;;;;31.35;8.02;;;;;;;28.94;51.26;99751.13;5093717;28;20436;-80
2021/06/25 00:24:46;;;;;;;30.45;7.47;;;;;;;29.11;50.72;99748.66;5093383;28;20036;-79
2021/06/25 00:27:15;;;;;;;32.28;7.80;;;;;;;28.98;51.06;99753.22;5093470;28;20106;-81
2021/06/25 00:29:43;;;;;;;33.78;7.88;;;;;;;28.98;51.10;99755.97;5093575;28;20071;-79
2021/06/25 00:32:14;;;;;;;35.10;8.52;;;;;;;28.96;51.57;99758.09;5093924;28;20048;-79
2021/06/25 00:34:43;;;;;;;32.67;7.72;;;;;;;28.92;51.11;99754.09;5093333;28;20071;-78
2021/06/25 00:37:12;;;;;;;41.08;8.82;;;;;;;28.90;51.38;99748.00;5093693;28;20040;-79
2021/06/25 00:39:42;;;;;;;29.60;7.72;;;;;;;28.89;52.24;99753.72;5093362;28;20051;-79
2021/06/25 00:42:11;;;;;;;33.03;8.40;;;;;;;28.82;52.62;99753.72;5093111;28;20509;-79
2021/06/25 00:44:40;;;;;;;29.80;8.15;;;;;;;28.75;52.52;99748.28;5093489;28;20046;-79
2021/06/25 00:47:14;;;;;;;28.60;7.97;;;;;;;28.76;52.48;99750.00;5093322;28;20070;-79
2021/06/25 00:49:43;;;;;;;36.30;8.70;;;;;;;28.71;52.73;99755.28;5093341;28;20052;-74
2021/06/25 00:52:18;;;;;;;33.60;7.55;;;;;;;28.79;51.71;99755.03;5093084;28;20044;-75
2021/06/25 00:54:46;;;;;;;33.95;7.43;;;;;;;28.85;51.52;99753.28;5092995;28;20069;-76
2021/06/25 00:57:16;;;;;;;33.10;8.63;;;;;;;28.91;51.38;99748.84;5093341;28;20119;-74
2021/06/25 00:59:44;;;;;;;33.25;7.82;;;;;;;28.63;52.37;99744.59;5093097;28;20078;-75
2021/06/25 01:02:13;;;;;;;37.13;8.65;;;;;;;28.47;53.09;99754.19;5093068;28;20043;-74
2021/06/25 01:04:42;;;;;;;27.50;7.95;;;;;;;28.30;53.91;99753.03;5075219;28;20090;-73
2021/06/25 01:07:11;;;;;;;35.58;8.23;;;;;;;28.25;54.14;99736.34;5092856;28;20044;-73
2021/06/25 01:09:43;;;;;;;32.00;8.48;;;;;;;28.22;53.84;99742.28;5092710;28;20135;-74
2021/06/25 01:12:12;;;;;;;32.13;7.32;;;;;;;28.22;54.03;99742.28;5092792;28;20058;-73
2021/06/25 01:14:41;;;;;;;33.58;8.07;;;;;;;28.17;54.52;99750.31;5092920;28;20040;-73
2021/06/25 01:17:28;;;;;;;26.17;7.32;;;;;;;28.15;54.58;99742.31;5092542;28;20044;-75
2021/06/25 01:19:58;;;;;;;30.48;8.02;;;;;;;28.14;54.49;99737.03;5092743;28;20097;-75
2021/06/25 01:22:34;;;;;;;35.75;8.65;;;;;;;28.05;55.18;99741.09;5093073;28;20048;-74
2021/06/25 01:25:07;;;;;;;33.13;7.57;;;;;;;27.95;55.20;99738.81;5093433;28;20131;-74
2021/06/25 01:27:36;;;;;;;31.10;8.23;;;;;;;27.97;55.12;99727.63;5096963;28;20109;-74
2021/06/25 01:30:08;;;;;;;34.67;8.88;;;;;;;28.07;54.67;99722.53;5096722;28;20044;-74
2021/06/25 01:32:37;;;;;;;34.25;9.10;;;;;;;28.05;54.77;99724.66;5097131;28;20040;-74
2021/06/25 01:35:08;;;;;;;34.53;8.55;;;;;;;27.98;54.90;99723.81;5096516;28;20048;-72
2021/06/25 01:37:38;;;;;;;37.42;9.38;;;;;;;27.92;55.01;99731.88;5078549;28;20496;-73
2021/06/25 01:40:08;;;;;;;31.60;8.55;;;;;;;27.84;55.41;99721.16;5096407;28;20040;-73
2021/06/25 01:42:39;;;;;;;42.78;9.63;;;;;;;27.82;55.54;99725.19;5097120;28;20044;-74
2021/06/25 01:45:10;;;;;;;35.38;9.57;;;;;;;27.79;55.81;99720.97;5096506;28;20101;-73
2021/06/25 01:47:40;;;;;;;37.13;10.27;;;;;;;27.64;56.98;99728.59;5079009;28;20068;-73
2021/06/25 01:50:11;;;;;;;36.10;10.00;;;;;;;27.62;56.38;99725.22;5096473;28;20082;-72
2021/06/25 01:52:44;;;;;;;35.40;10.10;;;;;;;27.55;56.49;99718.91;5096474;28;20047;-72
2021/06/25 01:55:13;;;;;;;37.20;10.00;;;;;;;27.60;55.97;99728.19;5096307;28;20036;-74
2021/06/25 01:57:45;;;;;;;38.00;9.38;;;;;;;27.61;56.35;99727.13;5096435;28;20036;-73
2021/06/25 02:00:14;;;;;;;28.00;8.85;;;;;;;27.58;57.05;99724.78;5096049;28;20070;-74
2021/06/25 02:02:44;;;;;;;34.28;9.00;;;;;;;27.53;57.08;99737.47;5096365;28;20071;-74
2021/06/25 02:05:16;;;;;;;28.50;8.05;;;;;;;27.63;56.48;99743.34;5095868;28;20448;-74
2021/06/25 02:07:45;;;;;;;30.95;7.88;;;;;;;27.90;55.30;99744.13;5096248;28;20518;-74
2021/06/25 02:10:14;;;;;;;40.45;8.15;;;;;;;27.87;55.20;99745.38;5095891;28;20093;-73
2021/06/25 02:12:42;;;;;;;27.42;7.40;;;;;;;27.71;55.95;99750.53;5096266;28;20475;-73
2021/06/25 02:15:11;;;;;;;30.35;8.63;;;;;;;27.52;56.71;99744.00;5095687;28;20047;-74
2021/06/25 02:17:40;;;;;;;33.92;7.25;;;;;;;27.42;56.16;99740.88;5096021;28;20040;-74
2021/06/25 02:20:10;;;;;;;34.22;7.95;;;;;;;27.31;56.61;99737.72;5095797;28;20047;-74
2021/06/25 02:22:38;;;;;;;29.58;7.43;;;;;;;27.28;56.56;99749.09;5096026;28;20067;-75
2021/06/25 02:25:11;;;;;;;31.52;7.55;;;;;;;27.41;55.77;99744.63;5095526;28;20055;-75
2021/06/25 02:27:40;;;;;;;26.88;7.55;;;;;;;27.67;53.58;99750.09;5096013;28;20040;-75
2021/06/25 02:30:11;;;;;;;25.92;7.40;;;;;;;27.71;52.49;99754.09;5095482;28;20042;-75
2021/06/25 02:32:39;;;;;;;25.35;7.13;;;;;;;27.70;52.49;99755.16;5095968;28;20062;-74
2021/06/25 02:35:08;;;;;;;27.58;7.28;;;;;;;27.68;52.32;99749.03;5095391;28;20044;-76
2021/06/25 02:37:37;;;;;;;33.05;7.38;;;;;;;27.67;52.28;99750.94;5094497;28;20072;-75
2021/06/25 02:40:08;;;;;;;28.45;7.03;;;;;;;27.58;52.18;99740.38;5095291;28;20079;-75
2021/06/25 02:42:37;;;;;;;34.05;6.97;;;;;;;27.21;53.78;99755.63;5095501;28;20457;-76
2021/06/25 02:45:07;;;;;;;29.23;7.20;;;;;;;26.96;54.95;99764.47;5095404;28;20052;-75
2021/06/25 02:47:38;;;;;;;32.30;7.07;;;;;;;26.77;55.59;99755.19;5095682;28;20097;-76
2021/06/25 02:50:08;;;;;;;30.63;7.45;;;;;;;26.58;56.71;99760.63;5095209;28;20473;-75
2021/06/25 02:52:39;;;;;;;33.88;7.82;;;;;;;26.35;57.96;99750.03;5095573;28;20052;-74
2021/06/25 02:55:11;;;;;;;29.73;8.07;;;;;;;26.23;58.21;99753.34;5094843;28;20066;-73
2021/06/25 02:57:40;;;;;;;29.17;7.83;;;;;;;26.11;59.22;99755.00;5095565;28;20093;-74
2021/06/25 03:00:12;;;;;;;27.65;7.75;;;;;;;26.00;59.96;99757.50;5094903;28;20044;-73
2021/06/25 03:02:41;;;;;;;26.88;7.97;;;;;;;25.89;60.39;99753.44;5095417;28;20044;-73
2021/06/25 03:05:11;;;;;;;23.40;7.85;;;;;;;25.83;61.23;99759.72;5076434;28;20051;-72
2021/06/25 03:07:40;;;;;;;26.85;8.65;;;;;;;25.66;61.91;99751.81;5094855;28;20052;-71
2021/06/25 03:10:10;;;;;;;25.33;8.27;;;;;;;25.74;61.88;99753.56;5094724;28;20375;-70
2021/06/25 03:12:39;;;;;;;24.48;8.60;;;;;;;25.69;61.80;99765.09;5095192;28;20044;-70
2021/06/25 03:15:09;;;;;;;23.85;7.97;;;;;;;25.53;62.77;99768.13;5094578;28;20040;-70
2021/06/25 03:17:37;;;;;;;22.05;7.95;;;;;;;25.50;62.70;99752.16;5094977;28;20123;-70
2021/06/25 03:20:09;;;;;;;18.00;7.38;;;;;;;25.49;62.81;99766.03;5094506;28;20592;-69
2021/06/25 03:22:37;;;;;;;19.65;7.40;;;;;;;25.43;62.97;99766.81;5094742;28;20040;-70
2021/06/25 03:25:07;;;;;;;19.73;7.55;;;;;;;25.35;62.98;99756.88;5094550;28;20071;-70
2021/06/25 03:27:37;;;;;;;19.20;7.35;;;;;;;25.31;63.17;99763.81;5094707;28;20044;-70
2021/06/25 03:30:10;;;;;;;19.95;7.78;;;;;;;25.36;63.08;99759.41;5094397;28;20036;-70
2021/06/25 03:32:39;;;;;;;21.13;8.45;;;;;;;25.38;63.29;99764.66;5094617;28;20043;-70
2021/06/25 03:35:09;;;;;;;20.92;8.00;;;;;;;25.53;62.45;99770.03;5094182;28;20048;-69
2021/06/25 03:37:38;;;;;;;21.20;7.40;;;;;;;25.72;61.41;99790.34;5094743;28;20043;-71
2021/06/25 03:40:09;;;;;;;19.52;7.90;;;;;;;25.93;60.60;99803.91;5094248;28;20043;-76
2021/06/25 03:42:39;;;;;;;19.48;7.80;;;;;;;26.26;59.63;99790.41;5094531;28;20425;-76
2021/06/25 03:45:10;;;;;;;16.13;7.65;;;;;;;26.43;58.98;99807.28;5094281;28;20047;-75
2021/06/25 03:47:39;;;;;;;19.23;7.10;;;;;;;26.70;58.22;99802.72;5075907;28;20097;-76
2021/06/25 03:50:10;;;;;;;19.60;6.95;;;;;;;26.83;58.00;99800.03;5094129;28;20036;-76
2021/06/25 03:52:38;;;;;;;18.10;7.15;;;;;;;27.25;56.34;99811.66;5094568;28;20127;-76
2021/06/25 03:55:10;;;;;;;17.90;7.47;;;;;;;27.36;56.15;99803.63;5093865;28;20044;-76
2021/06/25 03:57:42;;;;;;;19.90;7.15;;;;;;;27.76;54.64;99805.50;5094339;28;20040;-72
2021/06/25 04:00:13;;;;;;;13.85;6.40;;;;;;;27.66;53.08;99806.78;5093778;28;20040;-72
2021/06/25 04:02:41;;;;;;;15.43;5.75;;;;;;;27.75;52.29;99817.53;5094054;28;20047;-72
2021/06/25 04:05:11;;;;;;;12.77;5.53;;;;;;;28.04;51.40;99821.66;5075575;28;20052;-71
2021/06/25 04:07:41;;;;;;;14.48;6.03;;;;;;;28.07;51.25;99826.69;5093493;28;20044;-73
2021/06/25 04:10:11;;;;;;;12.27;5.85;;;;;;;27.97;51.44;99827.16;5093473;28;20075;-73
2021/06/25 04:12:42;;;;;;;15.20;6.25;;;;;;;27.71;51.96;99830.81;5093860;28;20106;-74
2021/06/25 04:15:11;;;;;;;17.45;6.07;;;;;;;27.46;52.61;99829.75;5093716;28;20535;-74
2021/06/25 04:17:40;;;;;;;11.20;5.55;;;;;;;27.70;52.05;99831.88;5093659;28;20052;-74
2021/06/25 04:20:09;;;;;;;12.40;6.13;;;;;;;28.12;51.15;99844.19;5093198;28;20040;-74
2021/06/25 04:22:39;;;;;;;13.30;6.53;;;;;;;27.89;51.23;99844.69;5093320;28;20449;-75
2021/06/25 04:25:08;;;;;;;13.73;6.07;;;;;;;27.61;51.99;99844.06;5093224;28;20054;-74
2021/06/25 04:27:37;;;;;;;12.95;6.45;;;;;;;27.55;52.71;99844.91;5093463;28;20050;-74
2021/06/25 04:30:11;;;;;;;19.58;6.25;;;;;;;27.95;51.77;99846.56;5092990;28;20525;-75
2021/06/25 04:32:40;;;;;;;14.68;6.22;;;;;;;28.57;49.79;99843.38;5093508;28;20047;-75
2021/06/25 04:35:09;;;;;;;11.27;5.85;;;;;;;29.04;48.38;99847.56;5092613;28;20044;-75
2021/06/25 04:37:37;;;;;;;12.48;5.68;;;;;;;29.41;47.62;99850.44;5093519;28;20130;-74
2021/06/25 04:40:07;;;;;;;16.00;6.13;;;;;;;29.73;46.89;99846.59;5092803;28;20481;-75
2021/06/25 04:42:40;;;;;;;10.95;5.72;;;;;;;30.20;45.33;99853.28;5093267;28;20120;-75
2021/06/25 04:45:11;;;;;;;15.77;6.03;;;;;;;30.12;45.54;99848.09;5092987;28;20045;-72
2021/06/25 04:47:41;;;;;;;12.60;5.70;;;;;;;30.24;44.88;99867.44;5093201;28;20123;-74
2021/06/25 04:50:10;;;;;;;12.20;5.93;;;;;;;29.95;45.35;99866.25;5092946;28;20543;-72
2021/06/25 04:52:39;;;;;;;9.63;5.10;;;;;;;29.96;44.93;99869.81;5093373;28;20048;-71
2021/06/25 04:55:09;;;;;;;14.02;5.55;;;;;;;29.74;45.55;99875.75;5092790;28;20044;-71
2021/06/25 04:57:38;;;;;;;12.07;5.38;;;;;;;31.12;42.93;99875.16;5093068;28;20079;-71
2021/06/25 05:00:08;;;;;;;14.73;5.15;;;;;;;31.04;42.42;99872.72;5092069;28;20043;-70
2021/06/25 05:02:38;;;;;;;15.48;4.80;;;;;;;30.97;42.39;99883.84;5093115;28;20074;-74
2021/06/25 05:05:08;;;;;;;16.02;5.28;;;;;;;31.93;40.49;99870.00;5092890;28;20051;-75
2021/06/25 05:07:36;;;;;;;12.95;5.30;;;;;;;31.70;40.50;99887.38;5092862;28;20044;-76
2021/06/25 05:10:09;;;;;;;11.07;5.03;;;;;;;32.02;40.22;99879.59;5092973;28;20105;-73
2021/06/25 05:12:38;;;;;;;10.60;4.60;;;;;;;32.52;38.37;99879.88;5092880;28;20044;-71
2021/06/25 05:15:08;;;;;;;12.60;4.25;;;;;;;32.74;37.67;99883.66;5092610;28;20065;-73
2021/06/25 05:17:38;;;;;;;9.82;4.50;;;;;;;32.67;37.13;99874.69;5092631;28;20444;-73
2021/06/25 05:20:17;;;;;;;9.82;4.10;;;;;;;32.92;37.17;99879.06;5096342;28;20048;-73
2021/06/25 05:22:46;;;;;;;10.70;4.40;;;;;;;33.39;35.78;99879.63;5092650;28;20044;-72
2021/06/25 05:25:15;;;;;;;13.60;4.05;;;;;;;32.61;37.21;99877.56;5092370;28;20417;-71
2021/06/25 05:27:43;;;;;;;9.52;4.43;;;;;;;32.11;37.97;99883.66;5092726;28;20044;-70
2021/06/25 05:30:13;;;;;;;12.48;4.30;;;;;;;32.49;37.81;99874.84;5092564;28;20044;-69
2021/06/25 05:32:43;;;;;;;11.43;4.30;;;;;;;33.24;36.51;99879.34;5092662;28;20051;-68
2021/06/25 05:35:12;;;;;;;10.23;4.45;;;;;;;31.84;38.75;99878.63;5092321;28;20498;-68
2021/06/25 05:37:42;;;;;;;9.75;4.30;;;;;;;31.80;39.21;99871.94;5092724;28;20394;-68
2021/06/25 05:40:12;;;;;;;11.35;4.35;;;;;;;32.59;37.51;99871.47;5092649;28;20054;-71
2021/06/25 05:42:43;;;;;;;10.82;4.20;;;;;;;32.77;37.00;99860.22;5074553;28;20044;-69
2021/06/25 05:45:12;;;;;;;14.00;4.60;;;;;;;32.77;37.34;99864.91;5092322;28;20040;-69
2021/06/25 05:47:41;;;;;;;15.05;5.03;;;;;;;32.42;37.84;99869.47;5092390;28;20044;-69
2021/06/25 05:50:11;;;;;;;12.10;4.78;;;;;;;33.26;36.96;99863.34;5092166;28;20143;-70
2021/06/25 05:52:39;;;;;;;8.75;4.50;;;;;;;33.54;36.10;99877.13;5092699;28;20074;-69
2021/06/25 05:55:08;;;;;;;11.05;4.40;;;;;;;33.59;35.96;99868.94;5092514;28;20050;-67
2021/06/25 05:57:36;;;;;;;9.50;4.10;;;;;;;34.16;35.02;99873.38;5092519;28;20044;-69
2021/06/25 06:00:09;;;;;;;13.40;4.18;;;;;;;33.49;35.89;99871.53;5092634;28;20044;-70
2021/06/25 06:02:39;;;;;;;10.77;4.18;;;;;;;33.82;35.56;99870.66;5092592;28;20119;-69
2021/06/25 06:05:10;;;;;;;13.35;4.70;;;;;;;33.44;36.64;99881.66;5092482;28;20048;-70
2021/06/25 06:07:38;;;;;;;11.50;3.92;;;;;;;33.24;36.63;99884.88;5092509;28;20070;-69
2021/06/25 06:10:09;;;;;;;10.55;4.50;;;;;;;33.32;36.42;99890.00;5091943;28;20036;-69
2021/06/25 06:12:37;;;;;;;10.80;4.80;;;;;;;33.94;36.14;99876.13;5095621;28;20032;-69
2021/06/25 06:15:07;;;;;;;10.77;4.60;;;;;;;34.30;35.15;99880.22;5077840;28;20109;-71
2021/06/25 06:17:38;;;;;;;9.00;4.15;;;;;;;34.30;34.51;99885.75;5096295;28;20047;-69
2021/06/25 06:20:08;;;;;;;8.23;4.15;;;;;;;34.67;34.18;99885.13;5096003;28;20052;-70
2021/06/25 06:31:10;;;;;;;9.10;4.03;;;;;;;33.92;35.25;99905.13;5095951;28;20044;-69
2021/06/25 06:33:41;;;;;;;10.82;3.95;;;;;;;34.22;35.10;99913.03;5095900;28;20040;-70
2021/06/25 06:36:16;;;;;;;8.27;4.07;;;;;;;34.19;34.37;99921.84;5095830;28;20048;-70
2021/06/25 06:38:46;;;;;;;11.60;4.30;;;;;;;34.06;35.30;99917.50;5095754;28;20402;-70
2021/06/25 06:41:14;;;;;;;9.55;4.15;;;;;;;34.59;33.87;99916.06;5095329;28;20047;-73
2021/06/25 06:43:43;;;;;;;11.85;4.10;;;;;;;34.25;35.07;99920.81;5095936;28;20048;-72
2021/06/25 06:46:12;;;;;;;9.30;3.85;;;;;;;33.86;35.56;99920.75;5095926;28;20386;-73
2021/06/25 06:48:42;;;;;;;6.85;3.88;;;;;;;34.26;34.67;99928.03;5095495;28;20055;-72
2021/06/25 06:51:11;;;;;;;9.38;4.00;;;;;;;34.27;34.60;99929.72;5096000;28;20048;-73
2021/06/25 06:53:43;;;;;;;9.93;3.92;;;;;;;33.98;35.20;99927.09;5095481;28;20460;-70
2021/06/25 06:56:13;;;;;;;10.45;4.38;;;;;;;33.75;35.11;99927.22;5095159;28;20044;-74
2021/06/25 06:58:42;;;;;;;9.95;4.07;;;;;;;33.63;35.70;99932.03;5077540;28;20158;-73
2021/06/25 07:01:11;;;;;;;10.38;4.05;;;;;;;33.65;36.70;99929.84;5094984;28;20040;-73
2021/06/25 07:03:59;;;;;;;9.38;3.72;;;;;;;32.44;38.42;99922.53;5095589;28;20487;-69
2021/06/25 07:06:28;;;;;;;10.00;4.10;;;;;;;32.48;39.07;99920.09;5094853;28;20071;-71
2021/06/25 07:08:58;;;;;;;11.00;4.47;;;;;;;32.20;39.29;99920.84;5095345;28;20387;-73
2021/06/25 07:11:31;;;;;;;10.18;4.45;;;;;;;32.27;39.50;99920.72;5094964;28;20044;-72
2021/06/25 07:13:59;;;;;;;10.63;4.20;;;;;;;32.24;39.40;99924.81;5095090;28;20043;-74
2021/06/25 07:16:28;;;;;;;12.98;4.25;;;;;;;32.21;39.76;99919.75;5094761;28;20067;-73
2021/06/25 07:18:56;;;;;;;13.05;3.95;;;;;;;31.96;39.80;99911.75;5095106;28;20418;-73
2021/06/25 07:21:24;;;;;;;7.18;3.58;;;;;;;31.86;40.43;99914.28;5094731;28;20097;-73
2021/06/25 07:23:53;;;;;;;9.13;4.10;;;;;;;31.60;41.00;99918.28;5094347;28;20375;-75
2021/06/25 07:26:21;;;;;;;10.35;4.22;;;;;;;31.58;40.78;99913.03;5094818;28;20040;-75
2021/06/25 07:28:50;;;;;;;9.50;3.90;;;;;;;31.17;41.65;99922.09;5076814;28;20056;-75
2021/06/25 07:31:22;;;;;;;10.13;3.83;;;;;;;31.24;41.29;99917.38;5094094;28;20060;-75
2021/06/25 07:33:50;;;;;;;9.90;4.32;;;;;;;30.76;42.55;99923.72;5094877;28;20055;-73
2021/06/25 07:36:19;;;;;;;11.93;4.47;;;;;;;30.94;42.08;99933.88;5094469;28;20048;-73
2021/06/25 07:38:48;;;;;;;11.07;4.28;;;;;;;31.13;42.12;99934.66;5095230;28;20047;-73
2021/06/25 07:41:16;;;;;;;10.82;4.00;;;;;;;30.73;42.74;99939.88;5094542;28;20098;-74
2021/06/25 07:43:45;;;;;;;9.07;4.30;;;;;;;30.80;42.80;99946.16;5094434;28;20475;-74
2021/06/25 07:46:14;;;;;;;9.98;4.20;;;;;;;30.67;43.45;99955.41;5094322;28;20043;-74
2021/06/25 07:48:42;;;;;;;10.32;4.57;;;;;;;30.48;43.48;99957.28;5094414;28;20047;-74
2021/06/25 07:51:11;;;;;;;10.60;4.03;;;;;;;30.49;43.16;99960.88;5094226;28;20047;-78
2021/06/25 07:53:39;;;;;;;11.90;4.25;;;;;;;30.73;42.66;99957.25;5094620;28;20036;-75
2021/06/25 07:56:07;;;;;;;9.82;3.95;;;;;;;30.82;41.89;99959.69;5094120;28;20539;-75
2021/06/25 07:58:35;;;;;;;11.10;4.07;;;;;;;30.59;42.50;99952.91;5075690;28;20127;-72
2021/06/25 08:01:03;;;;;;;7.15;3.85;;;;;;;30.37;42.97;99966.31;5094188;28;20066;-71
2021/06/25 08:03:34;;;;;;;8.77;3.70;;;;;;;30.44;42.16;99950.56;5075726;28;20052;-71
2021/06/25 08:06:03;;;;;;;9.38;4.28;;;;;;;30.70;43.06;99954.97;5094169;28;20094;-71
2021/06/25 08:08:31;;;;;;;8.05;3.90;;;;;;;30.89;42.61;99952.19;5093988;28;20056;-71
2021/06/25 08:11:00;;;;;;;7.10;3.63;;;;;;;30.67;42.11;99960.06;5093878;28;20048;-72
2021/06/25 08:13:29;;;;;;;8.95;3.67;;;;;;;30.78;41.77;99957.38;5093728;28;20047;-72
2021/06/25 08:15:58;;;;;;;5.20;3.50;;;;;;;30.42;42.13;99946.38;5093715;28;20044;-72
2021/06/25 08:18:26;;;;;;;7.50;3.50;;;;;;;30.13;42.75;99943.28;5093426;28;20040;-72
2021/06/25 08:20:56;;;;;;;10.02;4.00;;;;;;;30.41;42.55;99944.69;5093937;28;20036;-72
2021/06/25 08:23:26;;;;;;;9.52;3.65;;;;;;;30.48;42.61;99945.44;5093734;28;20039;-72
2021/06/25 08:25:54;;;;;;;7.32;3.72;;;;;;;30.23;43.44;99944.69;5093730;28;20044;-71
2021/06/25 08:28:23;;;;;;;8.77;4.07;;;;;;;30.58;43.35;99948.50;5093234;28;20044;-72
2021/06/25 08:30:51;;;;;;;8.25;4.00;;;;;;;30.55;42.57;99946.22;5093616;28;20067;-72
2021/06/25 08:33:19;;;;;;;12.20;4.00;;;;;;;30.57;43.08;99954.22;5093494;28;20036;-72
2021/06/25 08:35:50;;;;;;;8.30;3.85;;;;;;;30.33;43.40;99958.75;5092574;28;20468;-72
2021/06/25 08:38:20;;;;;;;7.07;3.80;;;;;;;30.12;43.31;99957.28;5093415;28;20052;-72
2021/06/25 08:40:50;;;;;;;8.70;4.00;;;;;;;30.09;43.26;99953.03;5093503;28;20051;-72
2021/06/25 08:43:20;;;;;;;9.15;3.55;;;;;;;29.99;43.54;99952.69;5093112;28;20044;-72
2021/06/25 08:45:48;;;;;;;8.70;3.75;;;;;;;30.14;43.73;99955.97;5093567;28;20101;-72
2021/06/25 08:48:18;;;;;;;6.55;3.47;;;;;;;30.51;43.53;99949.66;5093229;28;20067;-72
2021/06/25 08:50:51;;;;;;;8.05;3.80;;;;;;;30.50;42.29;99957.06;5093326;28;20106;-70
2021/06/25 08:53:21;;;;;;;7.90;3.65;;;;;;;29.95;43.84;99959.72;5093246;28;20044;-75
2021/06/25 08:55:49;;;;;;;8.55;3.38;;;;;;;29.87;43.64;99954.50;5093498;28;20044;-74
2021/06/25 08:58:18;;;;;;;6.85;3.90;;;;;;;29.90;44.04;99954.03;5092915;28;20047;-75
2021/06/25 09:00:48;;;;;;;7.85;3.40;;;;;;;29.67;44.47;99954.69;5093096;28;20101;-74
2021/06/25 09:03:23;;;;;;;6.82;3.53;;;;;;;29.86;44.09;99941.84;5093223;28;20043;-72
2021/06/25 09:05:54;;;;;;;7.32;3.45;;;;;;;29.93;43.79;99950.88;5092949;28;20474;-72
2021/06/25 09:08:29;;;;;;;7.03;3.37;;;;;;;29.59;43.84;99953.03;5092893;28;20056;-74
2021/06/25 09:10:59;;;;;;;7.80;3.80;;;;;;;29.72;44.23;99951.25;5093371;28;20060;-75
2021/06/25 09:13:33;;;;;;;9.70;3.50;;;;;;;29.64;44.64;99961.47;5092921;28;20410;-74
2021/06/25 09:16:02;;;;;;;8.20;3.42;;;;;;;29.72;43.69;99970.47;5093392;28;20040;-75
2021/06/25 09:18:30;;;;;;;7.88;3.50;;;;;;;29.52;43.89;99965.13;5074462;28;20139;-75
2021/06/25 09:20:58;;;;;;;10.18;3.67;;;;;;;29.92;43.64;99957.44;5093183;28;20044;-75
2021/06/25 09:23:36;;;;;;;7.70;3.80;;;;;;;30.12;43.75;99958.13;5092866;28;20048;-74
2021/06/25 09:26:32;;;;;;;7.18;3.47;;;;;;;29.97;43.83;99960.34;5092707;28;20050;-74
2021/06/25 09:29:12;;;;;;;9.85;3.60;;;;;;;30.03;43.54;99964.94;5092885;28;20075;-75
2021/06/25 09:31:43;;;;;;;8.15;3.35;;;;;;;29.72;44.22;99954.81;5092668;28;20036;-74
2021/06/25 09:34:12;;;;;;;10.13;3.90;;;;;;;29.54;45.27;99941.91;5093022;28;20040;-75
2021/06/25 09:36:43;;;;;;;7.88;3.70;;;;;;;29.44;45.64;99948.91;5092520;28;20040;-74
2021/06/25 09:39:14;;;;;;;8.93;3.90;;;;;;;29.64;45.88;99955.97;5092617;28;20375;-75
2021/06/25 09:41:45;;;;;;;6.85;3.40;;;;;;;29.78;46.10;99948.44;5092716;28;20119;-74
2021/06/25 09:44:18;;;;;;;7.25;3.83;;;;;;;30.02;44.96;99941.25;5093034;28;20086;-74
2021/06/25 09:46:52;;;;;;;7.45;3.72;;;;;;;30.32;44.48;99940.56;5095222;28;20044;-74
2021/06/25 09:49:25;;;;;;;8.15;3.30;;;;;;;30.48;43.92;99945.44;5096480;28;20122;-74
2021/06/25 09:51:55;;;;;;;7.50;3.78;;;;;;;30.42;43.91;99940.88;5096639;28;20145;-75
2021/06/25 09:54:25;;;;;;;8.75;3.55;;;;;;;30.36;43.55;99939.03;5096660;28;20074;-74
2021/06/25 09:57:05;;;;;;;6.55;3.13;;;;;;;29.73;44.78;99936.47;5096835;28;20048;-75
2021/06/25 10:02:28;;;;;;;5.55;3.38;;;;;;;29.83;44.60;99942.28;5096270;28;20090;-76
2021/06/25 10:04:59;;;;;;;7.95;3.25;;;;;;;29.74;44.46;99954.63;5096472;28;20071;-75
2021/06/25 10:07:29;;;;;;;7.97;3.55;;;;;;;30.00;44.06;99940.63;5096438;28;20040;-75
2021/06/25 10:10:02;;;;;;;9.95;3.70;;;;;;;29.79;43.94;99941.88;5096246;28;20056;-75
2021/06/25 10:12:30;;;;;;;10.25;3.80;;;;;;;30.16;43.41;99942.81;5095685;28;20394;-74
2021/06/25 10:15:02;;;;;;;6.65;3.42;;;;;;;30.02;43.63;99948.66;5096419;28;20119;-75
2021/06/25 10:17:31;;;;;;;8.02;3.33;;;;;;;29.92;43.85;99946.44;5096318;28;20062;-75
2021/06/25 10:20:05;;;;;;;5.93;3.38;;;;;;;29.91;44.45;99952.97;5096126;28;20119;-74
2021/06/25 10:22:35;;;;;;;7.40;3.50;;;;;;;30.10;44.58;99949.22;5095910;28;20051;-75
2021/06/25 10:25:06;;;;;;;8.10;3.97;;;;;;;29.96;44.70;99953.16;5095920;28;20089;-75
2021/06/25 10:27:36;;;;;;;8.00;4.03;;;;;;;30.30;43.22;99967.44;5096078;28;20044;-75
2021/06/25 10:30:06;;;;;;;9.25;3.85;;;;;;;30.47;43.18;99954.75;5096030;28;20131;-74
2021/06/25 10:32:38;;;;;;;6.65;3.53;;;;;;;30.78;42.73;99956.53;5077644;28;20086;-73
2021/06/25 10:35:10;;;;;;;9.13;4.10;;;;;;;30.75;41.30;99957.84;5096024;28;20444;-75
2021/06/25 10:37:40;;;;;;;8.27;3.80;;;;;;;30.78;42.00;99951.88;5095609;28;20078;-74
2021/06/25 10:40:25;;;;;;;7.45;3.60;;;;;;;30.52;42.21;99957.69;5096052;28;20048;-74
2021/06/25 10:42:55;;;;;;;9.75;3.70;;;;;;;30.33;41.61;99943.09;5095780;28;20044;-75
2021/06/25 10:45:40;;;;;;;7.72;3.90;;;;;;;30.31;42.20;99952.63;5095485;28;20062;-75
2021/06/25 10:48:09;;;;;;;7.82;3.70;;;;;;;30.60;40.67;99957.38;5095469;28;20047;-75
2021/06/25 10:50:40;;;;;;;6.47;3.22;;;;;;;30.64;40.88;99944.00;5095662;28;20048;-74
2021/06/25 10:53:20;;;;;;;6.70;3.55;;;;;;;30.59;40.69;99950.16;5095657;28;20044;-75
2021/06/25 10:56:05;;;;;;;5.93;3.40;;;;;;;30.65;41.50;99956.72;5095575;28;20048;-72
2021/06/25 10:58:35;;;;;;;7.13;3.80;;;;;;;30.43;41.84;99948.88;5075855;28;20044;-75
2021/06/25 11:01:05;;;;;;;9.43;4.00;;;;;;;30.33;42.52;99942.25;5095310;28;20423;-75
2021/06/25 11:03:41;;;;;;;9.30;3.70;;;;;;;30.33;42.37;99945.00;5095100;28;20044;-75
2021/06/25 11:06:53;;;;;;;8.98;3.70;;;;;;;30.67;41.57;99943.56;5095243;28;20040;-74
2021/06/25 11:09:22;;;;;;;11.30;4.20;;;;;;;30.92;41.40;99941.53;5074055;28;20472;-72
2021/06/25 11:12:17;;;;;;;7.70;3.35;;;;;;;30.59;40.45;99947.41;5095279;28;20040;-75
2021/06/25 11:14:45;;;;;;;5.85;3.50;;;;;;;30.72;40.41;99944.56;5094823;28;20490;-74
2021/06/25 11:17:48;;;;;;;7.18;4.00;;;;;;;30.44;41.19;99945.06;5094981;28;20448;-75
2021/06/25 11:20:26;;;;;;;8.73;4.03;;;;;;;30.41;41.16;99937.28;5094961;28;20085;-73
2021/06/25 11:22:58;;;;;;;11.63;3.80;;;;;;;30.17;41.41;99943.66;5095297;28;20039;-75
2021/06/25 11:25:35;;;;;;;5.68;3.50;;;;;;;30.06;42.02;99936.97;5094640;28;20040;-76
2021/06/25 11:28:23;;;;;;;7.43;3.90;;;;;;;30.12;41.78;99930.63;5095196;28;20048;-76
2021/06/25 11:31:06;;;;;;;7.22;3.42;;;;;;;30.16;41.66;99934.56;5094739;28;20036;-74
2021/06/25 11:33:35;;;;;;;;;;;;;;;30.25;40.92;99934.28;5095041;28;20052;-74
2021/06/25 11:36:25;;;;;;;8.20;3.65;;;;;;;30.19;40.48;99941.53;5094571;28;19920;-73
2021/06/25 11:39:15;;;;;;;10.82;3.58;;;;;;;30.00;40.65;99937.03;5076872;28;20052;-76
2021/06/25 11:41:51;;;;;;;8.77;3.15;;;;;;;30.25;40.50;99939.78;5089732;28;20102;-74
2021/06/25 11:44:23;;;;;;;5.18;3.33;;;;;;;30.16;41.04;99931.81;5094524;28;20040;-74
2021/06/25 11:46:55;;;;;;;6.15;3.50;;;;;;;30.42;39.27;99932.63;5094542;28;20040;-74
2021/06/25 11:49:28;;;;;;;7.85;3.78;;;;;;;30.49;38.73;99925.09;5094438;28;20048;-75
2021/06/25 11:51:58;;;;;;;6.53;3.40;;;;;;;30.49;39.10;99925.09;5076746;28;20048;-75
2021/06/25 11:54:27;;;;;;;6.82;3.33;;;;;;;30.25;39.63;99931.53;5094111;28;20043;-77
2021/06/25 11:56:55;;;;;;;6.50;3.45;;;;;;;30.58;39.51;99923.72;5094189;28;20470;-73